Terminal Aerodrome Forecast
Issued by NWS Blacksburg, VA

Current Version | Previous Version | Text Only | Print | Product List | Glossary Off
Versions: 1 2 3 4 5 6 7 8 9 10 11 12 13 14 15 16 17 18 19 20 21 22 23 24 25 26

000
FTUS41 KRNK 222055 AAA
TAFBLF
TAF AMD
KBLF 222055Z 2221/2318 32007KT 6SM -SHRA VCTS OVC005CB
     FM222300 35005KT 3SM SHRA OVC010
     FM230000 03004KT P6SM OVC015
     FM230200 06004KT 3SM -RA BR OVC008
     FM231400 10008KT 1SM +SHRA OVC003=

USA.gov is the U.S. government's official web portal to all federal, state and local government web resources and services.